DAL39 EDDS-EHAM
Flight info
| Callsign | DAL39 |
|---|---|
| Flight time | 1h 3m |
| Altitude | 32000 |
| Route | OKIBA4B/25 OKIBA N851 RIMKI Z99 LOHRE/N0479F330 DCT MASEK/N0479F320 DCT MAPOX DCT NORKU |
| Aircraft | L101/H-SDFGHIRWXY/S |
Departure
| Time | 2026-05-07 14:07 |
|---|---|
| Airport | Stuttgart Airport (EDDS) |
Arrival
| Time | 2026-05-07 15:10 |
|---|---|
| Airport | Amsterdam Airport Schiphol (EHAM) |
| Time | Latitude | Longitude | Altitude | Speed | Heading |
|---|---|---|---|---|---|
| 2026-05-07 13:06 | 48.68877 | 9.19362 | 1290 ft | 0 kts | 345° |
| 2026-05-07 13:51 | 48.68870 | 9.19364 | 1290 ft | 3 kts | 344° |
| 2026-05-07 13:51 | 48.68847 | 9.19376 | 1290 ft | 1 kts | 344° |
| 2026-05-07 13:52 | 48.68824 | 9.19383 | 1290 ft | 4 kts | 7° |
| 2026-05-07 13:52 | 48.68803 | 9.19368 | 1290 ft | 4 kts | 63° |
| 2026-05-07 13:52 | 48.68795 | 9.19333 | 1290 ft | 4 kts | 74° |
| 2026-05-07 13:52 | 48.68793 | 9.19321 | 1290 ft | 0 kts | 74° |
| 2026-05-07 13:58 | 48.68793 | 9.19322 | 1290 ft | 1 kts | 74° |
| 2026-05-07 13:58 | 48.68801 | 9.19361 | 1290 ft | 7 kts | 74° |
| 2026-05-07 13:58 | 48.68819 | 9.19457 | 1290 ft | 12 kts | 74° |
| 2026-05-07 13:58 | 48.68845 | 9.19598 | 1290 ft | 16 kts | 74° |
| 2026-05-07 13:59 | 48.68879 | 9.19773 | 1290 ft | 19 kts | 73° |
| 2026-05-07 13:59 | 48.68866 | 9.19868 | 1290 ft | 9 kts | 152° |
| 2026-05-07 13:59 | 48.68819 | 9.19940 | 1290 ft | 10 kts | 96° |
| 2026-05-07 13:59 | 48.68842 | 9.20060 | 1290 ft | 14 kts | 72° |
| 2026-05-07 14:00 | 48.68875 | 9.20214 | 1290 ft | 17 kts | 73° |
| 2026-05-07 14:00 | 48.68907 | 9.20400 | 1290 ft | 20 kts | 75° |
| 2026-05-07 14:00 | 48.68946 | 9.20613 | 1290 ft | 22 kts | 73° |
| 2026-05-07 14:00 | 48.68993 | 9.20851 | 1290 ft | 25 kts | 74° |
| 2026-05-07 14:01 | 48.69042 | 9.21112 | 1290 ft | 27 kts | 73° |
| 2026-05-07 14:01 | 48.69086 | 9.21347 | 1290 ft | 21 kts | 73° |
| 2026-05-07 14:01 | 48.69122 | 9.21533 | 1290 ft | 16 kts | 74° |
| 2026-05-07 14:01 | 48.69154 | 9.21706 | 1290 ft | 14 kts | 72° |
| 2026-05-07 14:02 | 48.69185 | 9.21858 | 1290 ft | 17 kts | 74° |
| 2026-05-07 14:02 | 48.69220 | 9.22041 | 1290 ft | 20 kts | 73° |
| 2026-05-07 14:02 | 48.69258 | 9.22247 | 1290 ft | 21 kts | 75° |
| 2026-05-07 14:02 | 48.69297 | 9.22461 | 1290 ft | 21 kts | 75° |
| 2026-05-07 14:03 | 48.69338 | 9.22675 | 1290 ft | 23 kts | 72° |
| 2026-05-07 14:03 | 48.69378 | 9.22874 | 1290 ft | 16 kts | 74° |
| 2026-05-07 14:03 | 48.69410 | 9.23050 | 1290 ft | 18 kts | 74° |
| 2026-05-07 14:03 | 48.69445 | 9.23238 | 1290 ft | 20 kts | 74° |
| 2026-05-07 14:04 | 48.69480 | 9.23423 | 1290 ft | 17 kts | 74° |
| 2026-05-07 14:04 | 48.69512 | 9.23596 | 1290 ft | 15 kts | 73° |
| 2026-05-07 14:04 | 48.69544 | 9.23757 | 1290 ft | 17 kts | 75° |
| 2026-05-07 14:04 | 48.69579 | 9.23945 | 1290 ft | 20 kts | 74° |
| 2026-05-07 14:05 | 48.69605 | 9.24164 | 1290 ft | 22 kts | 99° |
| 2026-05-07 14:05 | 48.69525 | 9.24303 | 1290 ft | 18 kts | 160° |
| 2026-05-07 14:05 | 48.69413 | 9.24340 | 1290 ft | 10 kts | 186° |
| 2026-05-07 14:05 | 48.69384 | 9.24282 | 1290 ft | 0 kts | 254° |
| 2026-05-07 14:06 | 48.69383 | 9.24273 | 1290 ft | 11 kts | 254° |
| 2026-05-07 14:06 | 48.69291 | 9.23789 | 1290 ft | 83 kts | 254° |
| 2026-05-07 14:06 | 48.69070 | 9.22630 | 1292 ft | 143 kts | 255° |
| 2026-05-07 14:06 | 48.68771 | 9.21093 | 1789 ft | 159 kts | 256° |
| 2026-05-07 14:07 | 48.68467 | 9.19453 | 2616 ft | 163 kts | 257° |
| 2026-05-07 14:07 | 48.68163 | 9.17768 | 3404 ft | 170 kts | 257° |
| 2026-05-07 14:07 | 48.67855 | 9.15999 | 3962 ft | 180 kts | 257° |
| 2026-05-07 14:07 | 48.67555 | 9.14068 | 4330 ft | 199 kts | 260° |
| 2026-05-07 14:08 | 48.67275 | 9.11865 | 4728 ft | 228 kts | 259° |
| 2026-05-07 14:08 | 48.66932 | 9.09477 | 4960 ft | 238 kts | 258° |
| 2026-05-07 14:08 | 48.66768 | 9.07013 | 4946 ft | 236 kts | 279° |
| 2026-05-07 14:08 | 48.67401 | 9.04770 | 4958 ft | 234 kts | 309° |
| 2026-05-07 14:09 | 48.68688 | 9.03265 | 5010 ft | 239 kts | 331° |
| 2026-05-07 14:09 | 48.70237 | 9.02297 | 5035 ft | 241 kts | 339° |
| 2026-05-07 14:09 | 48.71837 | 9.01524 | 5010 ft | 242 kts | 341° |
| 2026-05-07 14:09 | 48.73453 | 9.00826 | 5005 ft | 242 kts | 347° |
| 2026-05-07 14:10 | 48.75133 | 9.00892 | 4942 ft | 247 kts | 14° |
| 2026-05-07 14:10 | 48.76619 | 9.02218 | 4953 ft | 252 kts | 41° |
| 2026-05-07 14:10 | 48.77763 | 9.04249 | 5024 ft | 257 kts | 52° |
| 2026-05-07 14:10 | 48.78798 | 9.06555 | 5588 ft | 266 kts | 55° |
| 2026-05-07 14:11 | 48.79777 | 9.08897 | 6641 ft | 259 kts | 56° |
| 2026-05-07 14:11 | 48.80734 | 9.11216 | 7467 ft | 262 kts | 57° |
| 2026-05-07 14:11 | 48.81716 | 9.13587 | 8147 ft | 268 kts | 56° |
| 2026-05-07 14:11 | 48.82718 | 9.16005 | 8927 ft | 271 kts | 57° |
| 2026-05-07 14:12 | 48.83725 | 9.18426 | 9748 ft | 272 kts | 57° |
| 2026-05-07 14:12 | 48.84753 | 9.20879 | 10385 ft | 278 kts | 56° |
| 2026-05-07 14:12 | 48.85928 | 9.23238 | 11058 ft | 280 kts | 48° |
| 2026-05-07 14:12 | 48.87185 | 9.25499 | 11795 ft | 281 kts | 48° |
| 2026-05-07 14:13 | 48.88441 | 9.27790 | 12442 ft | 284 kts | 42° |
| 2026-05-07 14:13 | 48.90084 | 9.29447 | 13045 ft | 285 kts | 18° |
| 2026-05-07 14:13 | 48.91985 | 9.30198 | 13823 ft | 282 kts | 8° |
| 2026-05-07 14:13 | 48.93923 | 9.30708 | 14463 ft | 285 kts | 8° |
| 2026-05-07 14:14 | 48.95868 | 9.31382 | 15070 ft | 290 kts | 12° |
| 2026-05-07 14:14 | 48.97898 | 9.32192 | 15275 ft | 314 kts | 13° |
| 2026-05-07 14:14 | 49.00096 | 9.33108 | 15394 ft | 339 kts | 13° |
| 2026-05-07 14:14 | 49.02430 | 9.34065 | 15503 ft | 358 kts | 7° |
| 2026-05-07 14:15 | 49.04972 | 9.34113 | 15620 ft | 374 kts | 352° |
| 2026-05-07 14:15 | 49.07604 | 9.33508 | 15777 ft | 391 kts | 349° |
| 2026-05-07 14:15 | 49.10353 | 9.32957 | 16052 ft | 404 kts | 353° |
| 2026-05-07 14:15 | 49.13172 | 9.32724 | 16720 ft | 406 kts | 356° |
| 2026-05-07 14:16 | 49.16012 | 9.32660 | 17381 ft | 409 kts | 357° |
| 2026-05-07 14:16 | 49.18865 | 9.32605 | 18004 ft | 412 kts | 357° |
| 2026-05-07 14:16 | 49.21749 | 9.32502 | 18593 ft | 416 kts | 356° |
| 2026-05-07 14:16 | 49.24652 | 9.32361 | 19158 ft | 419 kts | 356° |
| 2026-05-07 14:17 | 49.27577 | 9.32202 | 19719 ft | 422 kts | 355° |
| 2026-05-07 14:17 | 49.29567 | 9.32092 | 20119 ft | 424 kts | 355° |
| 2026-05-07 14:17 | 49.33491 | 9.31881 | 20874 ft | 429 kts | 355° |
| 2026-05-07 14:17 | 49.36479 | 9.31675 | 21435 ft | 431 kts | 354° |
| 2026-05-07 14:18 | 49.39488 | 9.31481 | 22036 ft | 435 kts | 357° |
| 2026-05-07 14:18 | 49.42533 | 9.31489 | 22562 ft | 439 kts | 360° |
| 2026-05-07 14:18 | 49.45604 | 9.31720 | 23137 ft | 443 kts | 2° |
| 2026-05-07 14:18 | 49.48689 | 9.32126 | 23673 ft | 447 kts | 4° |
| 2026-05-07 14:19 | 49.51794 | 9.32646 | 24172 ft | 450 kts | 5° |
| 2026-05-07 14:19 | 49.54912 | 9.33216 | 24647 ft | 454 kts | 5° |
| 2026-05-07 14:19 | 49.57042 | 9.33609 | 24974 ft | 455 kts | 5° |
| 2026-05-07 14:19 | 49.60197 | 9.34175 | 25471 ft | 458 kts | 5° |
| 2026-05-07 14:20 | 49.64406 | 9.34876 | 26155 ft | 461 kts | 4° |
| 2026-05-07 14:20 | 49.66558 | 9.35214 | 26488 ft | 463 kts | 4° |
| 2026-05-07 14:20 | 49.69782 | 9.35698 | 26976 ft | 467 kts | 4° |
| 2026-05-07 14:20 | 49.73030 | 9.36169 | 27484 ft | 470 kts | 4° |
| 2026-05-07 14:21 | 49.76289 | 9.36686 | 27987 ft | 474 kts | 6° |
| 2026-05-07 14:21 | 49.79559 | 9.37532 | 28489 ft | 478 kts | 10° |
| 2026-05-07 14:21 | 49.82814 | 9.38693 | 29025 ft | 482 kts | 13° |
| 2026-05-07 14:21 | 49.86049 | 9.40061 | 29677 ft | 483 kts | 14° |
| 2026-05-07 14:22 | 49.90314 | 9.41997 | 30577 ft | 482 kts | 15° |
| 2026-05-07 14:22 | 49.92493 | 9.42985 | 30999 ft | 481 kts | 15° |
| 2026-05-07 14:22 | 49.95718 | 9.44402 | 31628 ft | 481 kts | 14° |
| 2026-05-07 14:22 | 49.98922 | 9.45740 | 31945 ft | 484 kts | 13° |
| 2026-05-07 14:23 | 50.02166 | 9.47030 | 31993 ft | 482 kts | 13° |
| 2026-05-07 14:23 | 50.08684 | 9.49406 | 32029 ft | 479 kts | 9° |
| 2026-05-07 14:24 | 50.15282 | 9.50744 | 32041 ft | 477 kts | 4° |
| 2026-05-07 14:24 | 50.21897 | 9.51468 | 32027 ft | 477 kts | 2° |
| 2026-05-07 14:25 | 50.28515 | 9.52242 | 32033 ft | 477 kts | 4° |
| 2026-05-07 14:25 | 50.35132 | 9.53270 | 32043 ft | 477 kts | 5° |
| 2026-05-07 14:26 | 50.41724 | 9.54444 | 32030 ft | 477 kts | 5° |
| 2026-05-07 14:26 | 50.48324 | 9.55635 | 32047 ft | 477 kts | 5° |
| 2026-05-07 14:27 | 50.54935 | 9.56783 | 32039 ft | 479 kts | 5° |
| 2026-05-07 14:27 | 50.61560 | 9.57903 | 32055 ft | 479 kts | 5° |
| 2026-05-07 14:28 | 50.68199 | 9.58666 | 32020 ft | 477 kts | 355° |
| 2026-05-07 14:28 | 50.74600 | 9.56272 | 32031 ft | 474 kts | 333° |
| 2026-05-07 14:28 | 50.77383 | 9.53533 | 32062 ft | 473 kts | 320° |
| 2026-05-07 14:29 | 50.79765 | 9.49961 | 32041 ft | 471 kts | 310° |
| 2026-05-07 14:29 | 50.83628 | 9.41571 | 32049 ft | 472 kts | 302° |
| 2026-05-07 14:30 | 50.87188 | 9.32844 | 32055 ft | 472 kts | 304° |
| 2026-05-07 14:30 | 50.91065 | 9.24455 | 32039 ft | 472 kts | 308° |
| 2026-05-07 14:31 | 50.95236 | 9.16417 | 32039 ft | 472 kts | 310° |
| 2026-05-07 14:31 | 50.99486 | 9.08496 | 32045 ft | 472 kts | 310° |
| 2026-05-07 14:32 | 51.03689 | 9.00506 | 32063 ft | 472 kts | 309° |
| 2026-05-07 14:32 | 51.07829 | 8.92416 | 32042 ft | 471 kts | 308° |
| 2026-05-07 14:33 | 51.11932 | 8.84298 | 32062 ft | 470 kts | 308° |
| 2026-05-07 14:33 | 51.16139 | 8.76300 | 32047 ft | 472 kts | 312° |
| 2026-05-07 14:34 | 51.20703 | 8.68790 | 32050 ft | 472 kts | 315° |
| 2026-05-07 14:34 | 51.25366 | 8.61515 | 32054 ft | 471 kts | 315° |
| 2026-05-07 14:35 | 51.29998 | 8.54141 | 32062 ft | 469 kts | 314° |
| 2026-05-07 14:35 | 51.34537 | 8.46661 | 32051 ft | 469 kts | 313° |
| 2026-05-07 14:36 | 51.39051 | 8.39084 | 32077 ft | 471 kts | 313° |
| 2026-05-07 14:36 | 51.43560 | 8.31500 | 32052 ft | 468 kts | 313° |
| 2026-05-07 14:37 | 51.48074 | 8.23932 | 32074 ft | 471 kts | 313° |
| 2026-05-07 14:37 | 51.54221 | 8.13630 | 32060 ft | 470 kts | 313° |
| 2026-05-07 14:38 | 51.58395 | 8.06607 | 32059 ft | 471 kts | 313° |
| 2026-05-07 14:38 | 51.62901 | 7.98998 | 32064 ft | 469 kts | 313° |
| 2026-05-07 14:39 | 51.67398 | 7.91373 | 32080 ft | 470 kts | 313° |
| 2026-05-07 14:39 | 51.71903 | 7.83710 | 32078 ft | 470 kts | 313° |
| 2026-05-07 14:40 | 51.76384 | 7.76068 | 32075 ft | 468 kts | 313° |
| 2026-05-07 14:40 | 51.80850 | 7.68430 | 32062 ft | 468 kts | 313° |
| 2026-05-07 14:41 | 51.85329 | 7.60742 | 32071 ft | 470 kts | 313° |
| 2026-05-07 14:41 | 51.89790 | 7.53060 | 31582 ft | 461 kts | 313° |
| 2026-05-07 14:42 | 51.91973 | 7.49295 | 31004 ft | 457 kts | 312° |
| 2026-05-07 14:42 | 51.94137 | 7.45554 | 30443 ft | 457 kts | 312° |
| 2026-05-07 14:42 | 51.96320 | 7.41774 | 29868 ft | 458 kts | 312° |
| 2026-05-07 14:42 | 51.98503 | 7.37988 | 29242 ft | 460 kts | 312° |
| 2026-05-07 14:43 | 52.00692 | 7.34185 | 28642 ft | 462 kts | 312° |
| 2026-05-07 14:43 | 52.02861 | 7.30414 | 28039 ft | 451 kts | 312° |
| 2026-05-07 14:43 | 52.04982 | 7.26721 | 27473 ft | 444 kts | 312° |
| 2026-05-07 14:43 | 52.07080 | 7.23062 | 26907 ft | 440 kts | 311° |
| 2026-05-07 14:44 | 52.09153 | 7.19443 | 26375 ft | 436 kts | 311° |
| 2026-05-07 14:44 | 52.11184 | 7.15889 | 25847 ft | 433 kts | 311° |
| 2026-05-07 14:44 | 52.13225 | 7.12314 | 25343 ft | 430 kts | 311° |
| 2026-05-07 14:44 | 52.15256 | 7.08749 | 24822 ft | 427 kts | 311° |
| 2026-05-07 14:45 | 52.17267 | 7.05214 | 24340 ft | 424 kts | 311° |
| 2026-05-07 14:45 | 52.19260 | 7.01705 | 23856 ft | 421 kts | 311° |
| 2026-05-07 14:45 | 52.21243 | 6.98208 | 23355 ft | 419 kts | 311° |
| 2026-05-07 14:45 | 52.23190 | 6.94695 | 22798 ft | 415 kts | 309° |
| 2026-05-07 14:46 | 52.25034 | 6.91098 | 22262 ft | 411 kts | 307° |
| 2026-05-07 14:46 | 52.26800 | 6.87442 | 21740 ft | 408 kts | 306° |
| 2026-05-07 14:46 | 52.28529 | 6.83792 | 21228 ft | 404 kts | 306° |
| 2026-05-07 14:46 | 52.30113 | 6.80029 | 20730 ft | 400 kts | 297° |
| 2026-05-07 14:47 | 52.31198 | 6.75892 | 20243 ft | 395 kts | 286° |
| 2026-05-07 14:47 | 52.31848 | 6.71562 | 19789 ft | 392 kts | 280° |
| 2026-05-07 14:47 | 52.32305 | 6.67176 | 19329 ft | 389 kts | 279° |
| 2026-05-07 14:47 | 52.32781 | 6.62827 | 18880 ft | 387 kts | 281° |
| 2026-05-07 14:48 | 52.33396 | 6.58549 | 18435 ft | 385 kts | 285° |
| 2026-05-07 14:48 | 52.34145 | 6.54353 | 17955 ft | 384 kts | 287° |
| 2026-05-07 14:48 | 52.34962 | 6.50216 | 17460 ft | 381 kts | 288° |
| 2026-05-07 14:48 | 52.35778 | 6.46127 | 16974 ft | 378 kts | 287° |
| 2026-05-07 14:49 | 52.36558 | 6.42015 | 16508 ft | 376 kts | 286° |
| 2026-05-07 14:49 | 52.37285 | 6.37926 | 16051 ft | 373 kts | 285° |
| 2026-05-07 14:49 | 52.37978 | 6.33859 | 15601 ft | 370 kts | 285° |
| 2026-05-07 14:49 | 52.38657 | 6.29815 | 15158 ft | 368 kts | 285° |
| 2026-05-07 14:50 | 52.39332 | 6.25837 | 14736 ft | 367 kts | 285° |
| 2026-05-07 14:50 | 52.40031 | 6.21781 | 14305 ft | 364 kts | 285° |
| 2026-05-07 14:50 | 52.40718 | 6.17847 | 13899 ft | 363 kts | 285° |
| 2026-05-07 14:50 | 52.41411 | 6.13891 | 13427 ft | 361 kts | 285° |
| 2026-05-07 14:51 | 52.42099 | 6.09951 | 12976 ft | 358 kts | 285° |
| 2026-05-07 14:51 | 52.42778 | 6.06034 | 12524 ft | 355 kts | 285° |
| 2026-05-07 14:51 | 52.43456 | 6.02094 | 12085 ft | 353 kts | 285° |
| 2026-05-07 14:51 | 52.44117 | 5.98238 | 11654 ft | 351 kts | 285° |
| 2026-05-07 14:52 | 52.44773 | 5.94404 | 11240 ft | 347 kts | 284° |
| 2026-05-07 14:52 | 52.45418 | 5.90632 | 10813 ft | 337 kts | 285° |
| 2026-05-07 14:52 | 52.46029 | 5.87051 | 10514 ft | 316 kts | 285° |
| 2026-05-07 14:52 | 52.46601 | 5.83702 | 10261 ft | 292 kts | 284° |
| 2026-05-07 14:53 | 52.47138 | 5.80563 | 9870 ft | 283 kts | 284° |
| 2026-05-07 14:53 | 52.47663 | 5.77466 | 9396 ft | 282 kts | 284° |
| 2026-05-07 14:53 | 52.48187 | 5.74361 | 8861 ft | 281 kts | 285° |
| 2026-05-07 14:53 | 52.48706 | 5.71280 | 8334 ft | 280 kts | 285° |
| 2026-05-07 14:54 | 52.49225 | 5.68203 | 7819 ft | 279 kts | 284° |
| 2026-05-07 14:54 | 52.49739 | 5.65146 | 7415 ft | 276 kts | 285° |
| 2026-05-07 14:54 | 52.50246 | 5.62136 | 7237 ft | 278 kts | 285° |
| 2026-05-07 14:54 | 52.50766 | 5.59039 | 7140 ft | 278 kts | 284° |
| 2026-05-07 14:55 | 52.51013 | 5.55920 | 7069 ft | 276 kts | 266° |
| 2026-05-07 14:55 | 52.50672 | 5.52830 | 7085 ft | 276 kts | 252° |
| 2026-05-07 14:55 | 52.50011 | 5.49920 | 7090 ft | 276 kts | 246° |
| 2026-05-07 14:55 | 52.49227 | 5.47045 | 7084 ft | 275 kts | 244° |
| 2026-05-07 14:56 | 52.48456 | 5.44178 | 7072 ft | 274 kts | 246° |
| 2026-05-07 14:56 | 52.47746 | 5.41289 | 7076 ft | 271 kts | 248° |
| 2026-05-07 14:56 | 52.47087 | 5.38365 | 7078 ft | 269 kts | 249° |
| 2026-05-07 14:56 | 52.46477 | 5.35516 | 7076 ft | 268 kts | 250° |
| 2026-05-07 14:57 | 52.45869 | 5.32628 | 7077 ft | 268 kts | 250° |
| 2026-05-07 14:57 | 52.45256 | 5.29740 | 7077 ft | 268 kts | 250° |
| 2026-05-07 14:57 | 52.44635 | 5.26845 | 7076 ft | 269 kts | 250° |
| 2026-05-07 14:57 | 52.44009 | 5.23956 | 7068 ft | 268 kts | 249° |
| 2026-05-07 14:58 | 52.43382 | 5.21081 | 7072 ft | 268 kts | 249° |
| 2026-05-07 14:58 | 52.42754 | 5.18206 | 7075 ft | 268 kts | 249° |
| 2026-05-07 14:58 | 52.42126 | 5.15338 | 7075 ft | 268 kts | 249° |
| 2026-05-07 14:58 | 52.41496 | 5.12463 | 7074 ft | 268 kts | 249° |
| 2026-05-07 14:59 | 52.40866 | 5.09593 | 7075 ft | 268 kts | 249° |
| 2026-05-07 14:59 | 52.40235 | 5.06719 | 7076 ft | 268 kts | 249° |
| 2026-05-07 14:59 | 52.39604 | 5.03846 | 7076 ft | 268 kts | 249° |
| 2026-05-07 14:59 | 52.38971 | 5.00966 | 7075 ft | 268 kts | 249° |
| 2026-05-07 15:00 | 52.38339 | 4.98095 | 7075 ft | 268 kts | 249° |
| 2026-05-07 15:00 | 52.37704 | 4.95219 | 7082 ft | 268 kts | 249° |
| 2026-05-07 15:00 | 52.37070 | 4.92350 | 7076 ft | 268 kts | 249° |
| 2026-05-07 15:00 | 52.36645 | 4.90428 | 7077 ft | 267 kts | 249° |
| 2026-05-07 15:01 | 52.36011 | 4.87567 | 7082 ft | 267 kts | 249° |
| 2026-05-07 15:01 | 52.35385 | 4.84749 | 7078 ft | 267 kts | 249° |
| 2026-05-07 15:01 | 52.34751 | 4.81897 | 7076 ft | 267 kts | 249° |
| 2026-05-07 15:01 | 52.34119 | 4.79050 | 7076 ft | 266 kts | 248° |
| 2026-05-07 15:02 | 52.33502 | 4.76189 | 7043 ft | 267 kts | 250° |
| 2026-05-07 15:02 | 52.32948 | 4.73290 | 6772 ft | 268 kts | 251° |
| 2026-05-07 15:02 | 52.32423 | 4.70379 | 6436 ft | 264 kts | 252° |
| 2026-05-07 15:02 | 52.31919 | 4.67517 | 6085 ft | 260 kts | 252° |
| 2026-05-07 15:03 | 52.31417 | 4.64691 | 5736 ft | 259 kts | 252° |
| 2026-05-07 15:03 | 52.30910 | 4.61874 | 5401 ft | 258 kts | 253° |
| 2026-05-07 15:03 | 52.30394 | 4.59077 | 5064 ft | 256 kts | 253° |
| 2026-05-07 15:03 | 52.29880 | 4.56355 | 4730 ft | 248 kts | 253° |
| 2026-05-07 15:04 | 52.29368 | 4.53706 | 4433 ft | 240 kts | 252° |
| 2026-05-07 15:04 | 52.28865 | 4.51136 | 4121 ft | 235 kts | 252° |
| 2026-05-07 15:04 | 52.28371 | 4.48627 | 3815 ft | 230 kts | 252° |
| 2026-05-07 15:04 | 52.27870 | 4.46164 | 3479 ft | 227 kts | 246° |
| 2026-05-07 15:05 | 52.26912 | 4.44159 | 3063 ft | 226 kts | 213° |
| 2026-05-07 15:05 | 52.25487 | 4.43398 | 2837 ft | 216 kts | 180° |
| 2026-05-07 15:05 | 52.24032 | 4.43867 | 2530 ft | 213 kts | 159° |
| 2026-05-07 15:05 | 52.22670 | 4.44759 | 2295 ft | 210 kts | 152° |
| 2026-05-07 15:06 | 52.21600 | 4.46301 | 2038 ft | 202 kts | 118° |
| 2026-05-07 15:06 | 52.21203 | 4.48378 | 2001 ft | 189 kts | 98° |
| 2026-05-07 15:06 | 52.21053 | 4.50504 | 2034 ft | 189 kts | 94° |
| 2026-05-07 15:06 | 52.20982 | 4.52648 | 2016 ft | 189 kts | 84° |
| 2026-05-07 15:07 | 52.21443 | 4.54606 | 1966 ft | 185 kts | 59° |
| 2026-05-07 15:07 | 52.22158 | 4.56311 | 2117 ft | 179 kts | 55° |
| 2026-05-07 15:07 | 52.22839 | 4.57992 | 2152 ft | 176 kts | 58° |
| 2026-05-07 15:07 | 52.23494 | 4.59691 | 2015 ft | 176 kts | 58° |
| 2026-05-07 15:08 | 52.24144 | 4.61381 | 1731 ft | 174 kts | 57° |
| 2026-05-07 15:08 | 52.24758 | 4.62970 | 1477 ft | 155 kts | 57° |
| 2026-05-07 15:08 | 52.25300 | 4.64372 | 1332 ft | 142 kts | 56° |
| 2026-05-07 15:08 | 52.25832 | 4.65751 | 1218 ft | 148 kts | 55° |
| 2026-05-07 15:09 | 52.26396 | 4.67210 | 965 ft | 153 kts | 55° |
| 2026-05-07 15:09 | 52.26957 | 4.68671 | 679 ft | 150 kts | 55° |
| 2026-05-07 15:09 | 52.27522 | 4.70123 | 573 ft | 152 kts | 54° |
| 2026-05-07 15:09 | 52.28084 | 4.71587 | 317 ft | 153 kts | 56° |
| 2026-05-07 15:10 | 52.28654 | 4.73056 | 139 ft | 152 kts | 55° |
| 2026-05-07 15:10 | 52.29190 | 4.74459 | 7 ft | 135 kts | 57° |
| 2026-05-07 15:10 | 52.29621 | 4.75572 | 4 ft | 98 kts | 58° |
| 2026-05-07 15:10 | 52.29912 | 4.76332 | 1 ft | 48 kts | 58° |
| 2026-05-07 15:11 | 52.30122 | 4.76622 | 4 ft | 32 kts | 28° |
| 2026-05-07 15:11 | 52.30221 | 4.76706 | 4 ft | 3 kts | 28° |
| 2026-05-07 15:11 | 52.30249 | 4.76730 | 4 ft | 6 kts | 28° |
| 2026-05-07 15:11 | 52.30295 | 4.76778 | 4 ft | 9 kts | 40° |
| 2026-05-07 15:12 | 52.30330 | 4.76867 | 5 ft | 11 kts | 58° |
| 2026-05-07 15:12 | 52.30376 | 4.76990 | 5 ft | 14 kts | 58° |
| 2026-05-07 15:12 | 52.30433 | 4.77140 | 5 ft | 17 kts | 58° |
| 2026-05-07 15:12 | 52.30499 | 4.77313 | 4 ft | 19 kts | 57° |
| 2026-05-07 15:13 | 52.30568 | 4.77488 | 4 ft | 15 kts | 57° |
| 2026-05-07 15:13 | 52.30634 | 4.77580 | 4 ft | 13 kts | 20° |
| 2026-05-07 15:13 | 52.30731 | 4.77594 | 4 ft | 15 kts | 3° |
| 2026-05-07 15:13 | 52.30844 | 4.77605 | 4 ft | 18 kts | 4° |
| 2026-05-07 15:14 | 52.30970 | 4.77617 | 4 ft | 17 kts | 3° |
| 2026-05-07 15:14 | 52.31088 | 4.77628 | 4 ft | 17 kts | 1° |
| 2026-05-07 15:14 | 52.31136 | 4.77517 | 5 ft | 15 kts | 223° |
| 2026-05-07 15:14 | 52.31068 | 4.77400 | 4 ft | 15 kts | 267° |
| 2026-05-07 15:15 | 52.31075 | 4.77220 | 4 ft | 18 kts | 273° |
| 2026-05-07 15:15 | 52.31084 | 4.77002 | 4 ft | 20 kts | 275° |
| 2026-05-07 15:15 | 52.31050 | 4.76834 | 4 ft | 15 kts | 219° |
| 2026-05-07 15:15 | 52.31001 | 4.76723 | 4 ft | 9 kts | 245° |
| 2026-05-07 15:16 | 52.30952 | 4.76643 | 4 ft | 9 kts | 216° |
| 2026-05-07 15:16 | 52.30924 | 4.76631 | 4 ft | 3 kts | 184° |
| 2026-05-07 15:16 | 52.30919 | 4.76631 | 4 ft | 0 kts | 184° |